Time;durP1;ratioP1;P1;durP2;ratioP2;P2;SDS_P1;SDS_P2;PMS_P1;PMS_P2;Temp;Humidity;BMP_temperature;BMP_pressure;BME280_temperature;BME280_humidity;BME280_pressure;Samples;Min_cycle;Max_cycle;Signal;HPM_P1;HPM_P2
2022/03/25 00:01:00;;;;;;;;;55.75;43.50;;;;;-146.03;100.00;60875.16;4968550;28;45538;-87
2022/03/25 00:03:26;;;;;;;;;51.75;43.50;;;;;-146.03;100.00;60875.16;4969061;28;45580;-87
2022/03/25 00:05:52;;;;;;;;;52.00;42.50;;;;;-146.03;100.00;60875.16;4970202;28;45455;-89
2022/03/25 00:08:17;;;;;;;;;53.25;41.75;;;;;-146.03;100.00;60875.16;4968455;28;45497;-88
2022/03/25 00:10:43;;;;;;;;;56.75;43.50;;;;;-146.03;100.00;60875.16;4969530;28;46437;-88
2022/03/25 00:13:09;;;;;;;;;50.50;41.75;;;;;-146.03;100.00;60875.16;4971292;28;45493;-88
2022/03/25 00:15:35;;;;;;;;;52.25;42.50;;;;;-146.03;100.00;60875.16;4972640;28;45422;-87
2022/03/25 00:18:00;;;;;;;;;53.25;41.25;;;;;-146.03;100.00;60875.16;4965478;28;46681;-89
2022/03/25 00:20:26;;;;;;;;;53.50;40.75;;;;;-146.03;100.00;60875.16;4966460;28;45460;-89
2022/03/25 00:22:51;;;;;;;;;53.00;43.00;;;;;-146.03;100.00;60875.16;4970712;28;45917;-88
2022/03/25 00:25:17;;;;;;;;;52.00;40.25;;;;;-146.03;100.00;60875.16;4968171;28;45498;-87
2022/03/25 00:27:42;;;;;;;;;55.00;44.75;;;;;-146.03;100.00;60875.16;4966494;28;45994;-87
2022/03/25 00:30:08;;;;;;;;;54.25;43.00;;;;;-146.03;100.00;60875.16;4966917;28;45436;-87
2022/03/25 00:32:35;;;;;;;;;50.50;39.50;;;;;-146.03;100.00;60875.16;4966520;28;46111;-87
2022/03/25 00:35:00;;;;;;;;;54.00;43.75;;;;;-146.03;100.00;60875.16;4966810;28;45552;-88
2022/03/25 00:37:26;;;;;;;;;49.75;40.00;;;;;-146.03;100.00;60875.16;4970937;28;45781;-87
2022/03/25 00:39:52;;;;;;;;;53.75;44.25;;;;;-146.03;100.00;60875.16;4963859;28;46485;-88
2022/03/25 00:42:17;;;;;;;;;54.75;44.50;;;;;-146.03;100.00;60875.16;4966487;28;46114;-88
2022/03/25 00:44:43;;;;;;;;;52.75;43.25;;;;;-146.03;100.00;60875.16;4967370;28;46042;-87
2022/03/25 00:47:09;;;;;;;;;56.50;41.75;;;;;-146.03;100.00;60875.16;4968111;28;45379;-87
2022/03/25 00:49:35;;;;;;;;;53.00;44.50;;;;;-146.03;100.00;60875.16;4963407;28;46053;-88
2022/03/25 00:52:01;;;;;;;;;51.00;42.75;;;;;-146.03;100.00;60875.16;4968313;28;45491;-87
2022/03/25 00:54:27;;;;;;;;;53.50;41.00;;;;;-146.03;100.00;60875.16;4963005;28;45682;-87
2022/03/25 00:56:52;;;;;;;;;52.50;42.50;;;;;-146.03;100.00;60875.16;4971710;28;45959;-86
2022/03/25 00:59:17;;;;;;;;;55.25;40.75;;;;;-146.03;100.00;60875.16;4962727;28;47341;-87
2022/03/25 01:01:43;;;;;;;;;55.75;41.50;;;;;-146.03;100.00;60875.16;4968785;28;45607;-86
2022/03/25 01:04:09;;;;;;;;;23.75;14.25;;;;;-146.03;100.00;60875.16;4981323;28;45453;-87
2022/03/25 01:06:35;;;;;;;;;18.75;9.25;;;;;-146.03;100.00;60875.16;4967606;28;45557;-86
2022/03/25 01:09:03;;;;;;;;;58.50;45.00;;;;;-146.03;100.00;60875.16;4966853;28;47880;-86
2022/03/25 01:11:29;;;;;;;;;56.50;45.00;;;;;-146.03;100.00;60875.16;4962091;28;45474;-87
2022/03/25 01:13:54;;;;;;;;;51.00;41.50;;;;;-146.03;100.00;60875.16;4965472;28;45526;-88
2022/03/25 01:16:20;;;;;;;;;58.50;45.00;;;;;-146.03;100.00;60875.16;4968054;28;45438;-87
2022/03/25 01:18:46;;;;;;;;;54.00;45.50;;;;;-146.03;100.00;60875.16;4969718;28;47843;-85
2022/03/25 01:21:11;;;;;;;;;60.25;46.00;;;;;-146.03;100.00;60875.16;4970859;28;46601;-85
2022/03/25 01:23:37;;;;;;;;;59.25;45.25;;;;;-146.03;100.00;60875.16;4972313;28;45510;-85
2022/03/25 01:26:03;;;;;;;;;53.00;43.00;;;;;-146.03;100.00;60875.16;4968450;28;45770;-86
2022/03/25 01:28:34;;;;;;;;;56.25;43.75;;;;;-146.03;100.00;60875.16;4970254;28;48162;-86
2022/03/25 01:31:03;;;;;;;;;55.00;44.00;;;;;-146.03;100.00;60875.16;4969207;28;45789;-86
2022/03/25 01:33:30;;;;;;;;;55.00;44.25;;;;;-146.03;100.00;60875.16;4972220;28;47347;-84
2022/03/25 01:35:56;;;;;;;;;62.50;48.00;;;;;-146.03;100.00;60875.16;4965885;28;45587;-86
2022/03/25 01:38:21;;;;;;;;;52.75;44.25;;;;;-146.03;100.00;60875.16;4972093;28;47631;-85
2022/03/25 01:40:47;;;;;;;;;57.50;44.75;;;;;-146.03;100.00;60875.16;4971454;28;45553;-87
2022/03/25 01:43:12;;;;;;;;;56.00;45.75;;;;;-146.03;100.00;60875.16;4970585;28;45520;-86
2022/03/25 01:45:38;;;;;;;;;53.75;44.75;;;;;-146.03;100.00;60875.16;4964863;28;45498;-87
2022/03/25 01:48:09;;;;;;;;;54.00;42.75;;;;;-146.03;100.00;60875.16;4972009;28;47493;-87
2022/03/25 01:50:35;;;;;;;;;55.75;44.25;;;;;-146.03;100.00;60875.16;4966587;28;46488;-88
2022/03/25 01:53:01;;;;;;;;;52.75;42.50;;;;;-146.03;100.00;60875.16;4972125;28;46299;-88
2022/03/25 01:55:27;;;;;;;;;58.75;45.00;;;;;-146.03;100.00;60875.16;4984730;28;45813;-88
2022/03/25 01:57:58;;;;;;;;;57.00;45.25;;;;;-146.03;100.00;60875.16;4965406;28;46302;-86
2022/03/25 02:00:25;;;;;;;;;56.00;44.25;;;;;-146.03;100.00;60875.16;4968797;28;45596;-87
2022/03/25 02:02:50;;;;;;;;;52.25;40.25;;;;;-146.03;100.00;60875.16;4970954;28;45404;-88
2022/03/25 02:05:17;;;;;;;;;57.00;44.75;;;;;-146.03;100.00;60875.16;4969510;28;45566;-89
2022/03/25 02:07:43;;;;;;;;;55.50;43.25;;;;;-146.03;100.00;60875.16;4970426;28;45625;-87
2022/03/25 02:10:08;;;;;;;;;54.25;42.50;;;;;-146.03;100.00;60875.16;4970687;28;45779;-87
2022/03/25 02:12:35;;;;;;;;;51.00;42.25;;;;;-146.03;100.00;60875.16;4972588;28;45740;-87
2022/03/25 02:15:01;;;;;;;;;54.50;43.50;;;;;-146.03;100.00;60875.16;4969871;28;45441;-87
2022/03/25 02:17:26;;;;;;;;;55.50;43.00;;;;;-146.03;100.00;60875.16;4969778;28;47643;-88
2022/03/25 02:19:52;;;;;;;;;60.00;45.25;;;;;-146.03;100.00;60875.16;4963419;28;45711;-88
2022/03/25 02:22:17;;;;;;;;;55.50;44.75;;;;;-146.03;100.00;60875.16;4970648;28;45749;-87
2022/03/25 02:24:43;;;;;;;;;56.75;43.50;;;;;-146.03;100.00;60875.16;4969910;28;45885;-88
2022/03/25 02:27:11;;;;;;;;;54.25;43.75;;;;;-146.03;100.00;60875.16;4970827;28;46568;-86
2022/03/25 02:29:37;;;;;;;;;53.00;42.00;;;;;-146.03;100.00;60875.16;4967480;28;45760;-88
2022/03/25 02:32:03;;;;;;;;;50.50;41.00;;;;;-146.03;100.00;60875.16;4967527;28;45402;-86
2022/03/25 02:34:28;;;;;;;;;51.50;43.25;;;;;-146.03;100.00;60875.16;4971153;28;45410;-88
2022/03/25 02:36:53;;;;;;;;;57.50;45.50;;;;;-146.03;100.00;60875.16;4968548;28;52649;-87
2022/03/25 02:39:18;;;;;;;;;52.00;40.50;;;;;-146.03;100.00;60875.16;4972374;28;45484;-87
2022/03/25 02:41:44;;;;;;;;;54.50;41.25;;;;;-146.03;100.00;60875.16;4964595;28;46015;-87
2022/03/25 02:44:11;;;;;;;;;57.75;45.50;;;;;-146.03;100.00;60875.16;4971472;28;45545;-86
2022/03/25 02:46:37;;;;;;;;;56.50;45.25;;;;;-146.03;100.00;60875.16;4984835;28;47260;-85
2022/03/25 02:49:03;;;;;;;;;57.50;45.00;;;;;-146.03;100.00;60875.16;4968483;28;46036;-86
2022/03/25 02:51:29;;;;;;;;;56.25;45.50;;;;;-146.03;100.00;60875.16;4963317;28;45471;-86
2022/03/25 02:53:55;;;;;;;;;58.75;45.00;;;;;-146.03;100.00;60875.16;4964430;28;45556;-84
2022/03/25 02:56:21;;;;;;;;;57.00;43.50;;;;;-146.03;100.00;60875.16;4974926;28;46206;-85
2022/03/25 02:58:46;;;;;;;;;53.00;43.00;;;;;-146.03;100.00;60875.16;4972577;28;45417;-86
2022/03/25 03:01:13;;;;;;;;;57.00;44.75;;;;;-146.03;100.00;60875.16;4974556;28;46009;-86
2022/03/25 03:03:40;;;;;;;;;55.00;45.00;;;;;-146.03;100.00;60875.16;4971190;28;45465;-88
2022/03/25 03:06:07;;;;;;;;;54.25;44.25;;;;;-146.03;100.00;60875.16;4974802;28;46051;-88
2022/03/25 03:08:35;;;;;;;;;59.50;45.50;;;;;-146.03;100.00;60875.16;4975181;28;45496;-88
2022/03/25 03:11:01;;;;;;;;;54.00;43.50;;;;;-146.03;100.00;60875.16;4969961;28;45678;-88
2022/03/25 03:13:26;;;;;;;;;54.00;44.25;;;;;-146.03;100.00;60875.16;4968526;28;45623;-87
2022/03/25 03:15:52;;;;;;;;;55.00;44.75;;;;;-146.03;100.00;60875.16;4971569;28;55988;-85
2022/03/25 03:18:17;;;;;;;;;57.00;45.50;;;;;-146.03;100.00;60875.16;4973238;28;45645;-85
2022/03/25 03:20:42;;;;;;;;;52.75;40.75;;;;;-146.03;100.00;60875.16;4972344;28;45382;-86
2022/03/25 03:23:08;;;;;;;;;58.00;44.50;;;;;-146.03;100.00;60875.16;4975313;28;45651;-86
2022/03/25 03:25:35;;;;;;;;;52.25;43.75;;;;;-146.03;100.00;60875.16;4974079;28;45502;-86
2022/03/25 03:28:00;;;;;;;;;55.00;45.00;;;;;-146.03;100.00;60875.16;4975176;28;45509;-86
2022/03/25 03:30:26;;;;;;;;;51.25;41.00;;;;;-146.03;100.00;60875.16;4975169;28;45474;-86
2022/03/25 03:32:55;;;;;;;;;56.25;44.25;;;;;-146.03;100.00;60875.16;4968843;28;45515;-86
2022/03/25 03:35:21;;;;;;;;;57.00;46.00;;;;;-146.03;100.00;60875.16;4971775;28;48347;-86
2022/03/25 03:37:46;;;;;;;;;57.00;45.25;;;;;-146.03;100.00;60875.16;4962082;28;45847;-86
2022/03/25 03:40:16;;;;;;;;;54.00;43.50;;;;;-146.03;100.00;60875.16;4965467;28;45526;-86
2022/03/25 03:42:43;;;;;;;;;56.50;46.50;;;;;-146.03;100.00;60875.16;4969684;28;45712;-84
2022/03/25 03:45:09;;;;;;;;;53.75;41.75;;;;;-146.03;100.00;60875.16;4966009;28;48132;-86
2022/03/25 03:47:38;;;;;;;;;52.25;42.25;;;;;-146.03;100.00;60875.16;4964250;28;45354;-85
2022/03/25 03:50:05;;;;;;;;;58.25;46.00;;;;;-146.03;100.00;60875.16;4971381;28;45374;-87
2022/03/25 03:52:31;;;;;;;;;55.50;42.00;;;;;-146.03;100.00;60875.16;4973010;28;45296;-85
2022/03/25 03:54:57;;;;;;;;;55.25;43.75;;;;;-146.03;100.00;60875.16;4967119;28;47601;-86
2022/03/25 03:57:22;;;;;;;;;56.25;45.25;;;;;-146.03;100.00;60875.16;4974262;28;45521;-86
2022/03/25 03:59:47;;;;;;;;;56.50;44.50;;;;;-146.03;100.00;60875.16;4975177;28;45536;-86
2022/03/25 04:02:13;;;;;;;;;55.75;46.00;;;;;-146.03;100.00;60875.16;4960400;28;45246;-86
2022/03/25 04:04:38;;;;;;;;;53.75;44.00;;;;;-146.03;100.00;60875.16;4960947;28;52618;-86
2022/03/25 04:07:03;;;;;;;;;55.75;44.75;;;;;-146.03;100.00;60875.16;4964187;28;45411;-87
2022/03/25 04:09:29;;;;;;;;;52.50;43.50;;;;;-146.03;100.00;60875.16;4964421;28;45371;-87
2022/03/25 04:11:54;;;;;;;;;52.50;42.50;;;;;-146.03;100.00;60875.16;4961831;28;45475;-86
2022/03/25 04:14:20;;;;;;;;;58.00;45.00;;;;;-146.03;100.00;60875.16;4975612;28;46236;-86
2022/03/25 04:16:46;;;;;;;;;59.75;46.00;;;;;-146.03;100.00;60875.16;4974435;28;45437;-86
2022/03/25 04:19:12;;;;;;;;;56.75;46.00;;;;;-146.03;100.00;60875.16;4970548;28;45637;-87
2022/03/25 04:21:38;;;;;;;;;56.75;45.00;;;;;-146.03;100.00;60875.16;4964731;28;45388;-86
2022/03/25 04:24:03;;;;;;;;;55.25;43.75;;;;;-146.03;100.00;60875.16;4962581;28;45422;-86
2022/03/25 04:26:29;;;;;;;;;57.25;43.50;;;;;-146.03;100.00;60875.16;4972698;28;45446;-86
2022/03/25 04:28:54;;;;;;;;;53.00;45.00;;;;;-146.03;100.00;60875.16;4972701;28;45304;-87
2022/03/25 04:31:19;;;;;;;;;52.50;42.50;;;;;-146.03;100.00;60875.16;4958453;28;45563;-87
2022/03/25 04:33:45;;;;;;;;;59.75;44.00;;;;;-146.03;100.00;60875.16;4958037;28;53083;-88
2022/03/25 04:36:11;;;;;;;;;54.00;43.25;;;;;-146.03;100.00;60875.16;4960950;28;45410;-87
2022/03/25 04:38:36;;;;;;;;;59.00;45.00;;;;;-146.03;100.00;60875.16;4960763;28;45502;-86
2022/03/25 04:41:02;;;;;;;;;54.75;43.00;;;;;-146.03;100.00;60875.16;4972959;28;45465;-86
2022/03/25 04:43:28;;;;;;;;;58.25;45.00;;;;;-146.03;100.00;60875.16;4957710;28;45481;-86
2022/03/25 04:45:54;;;;;;;;;62.75;45.25;;;;;-146.03;100.00;60875.16;4958300;28;45260;-86
2022/03/25 04:48:19;;;;;;;;;56.50;44.50;;;;;-146.03;100.00;60875.16;4958651;28;45620;-86
2022/03/25 04:50:45;;;;;;;;;54.75;41.50;;;;;-146.03;100.00;60875.16;4958846;28;45560;-86
2022/03/25 04:53:10;;;;;;;;;59.00;47.00;;;;;-146.03;100.00;60875.16;4957562;28;45965;-87
2022/03/25 04:55:36;;;;;;;;;57.25;47.00;;;;;-146.03;100.00;60875.16;4954989;28;45328;-86
2022/03/25 04:58:02;;;;;;;;;58.00;46.00;;;;;-146.03;100.00;60875.16;4958172;28;45436;-86
2022/03/25 05:00:27;;;;;;;;;58.50;45.00;;;;;-146.03;100.00;60875.16;4958127;28;45484;-86
2022/03/25 05:02:52;;;;;;;;;55.25;42.00;;;;;-146.03;100.00;60875.16;4958424;28;45554;-87
2022/03/25 05:05:18;;;;;;;;;53.00;42.00;;;;;-146.03;100.00;60875.16;4957829;28;53881;-87
2022/03/25 05:07:45;;;;;;;;;61.00;45.50;;;;;-146.03;100.00;60875.16;4956181;28;45849;-88
2022/03/25 05:10:11;;;;;;;;;58.75;43.75;;;;;-146.03;100.00;60875.16;4961015;28;45438;-87
2022/03/25 05:12:38;;;;;;;;;54.25;43.75;;;;;-146.03;100.00;60875.16;4966387;28;48441;-87
2022/03/25 05:15:04;;;;;;;;;61.25;46.25;;;;;-146.03;100.00;60875.16;4966158;28;45337;-87
2022/03/25 05:17:29;;;;;;;;;58.50;46.00;;;;;-146.03;100.00;60875.16;4958373;28;45334;-87
2022/03/25 05:19:54;;;;;;;;;56.75;45.50;;;;;-146.03;100.00;60875.16;4956387;28;45356;-88
2022/03/25 05:22:20;;;;;;;;;57.00;44.75;;;;;-146.03;100.00;60875.16;4960265;28;45525;-87
2022/03/25 05:24:49;;;;;;;;;55.50;45.25;;;;;-146.03;100.00;60875.16;4960919;28;45502;-88
2022/03/25 05:27:14;;;;;;;;;56.75;45.75;;;;;-146.03;100.00;60875.16;4963837;28;45387;-87
2022/03/25 05:29:40;;;;;;;;;57.50;46.25;;;;;-146.03;100.00;60875.16;4969752;28;45347;-88
2022/03/25 05:32:06;;;;;;;;;59.25;46.75;;;;;-146.03;100.00;60875.16;4957079;28;46121;-87
2022/03/25 05:34:31;;;;;;;;;60.50;47.25;;;;;-146.03;100.00;60875.16;4956523;28;45479;-87
2022/03/25 05:36:56;;;;;;;;;55.50;44.25;;;;;-146.03;100.00;60875.16;4958041;28;45478;-87
2022/03/25 05:39:22;;;;;;;;;56.50;47.25;;;;;-146.03;100.00;60875.16;4957281;28;45541;-87
2022/03/25 05:41:47;;;;;;;;;56.00;44.25;;;;;-146.03;100.00;60875.16;4957934;28;45718;-87
2022/03/25 05:44:13;;;;;;;;;59.75;46.75;;;;;-146.03;100.00;60875.16;4957735;28;45946;-87
2022/03/25 05:46:39;;;;;;;;;64.25;47.25;;;;;-146.03;100.00;60875.16;4956125;28;46243;-87
2022/03/25 05:49:05;;;;;;;;;60.50;50.00;;;;;-146.03;100.00;60875.16;4957969;28;47845;-87
2022/03/25 05:51:31;;;;;;;;;56.50;44.00;;;;;-146.03;100.00;60875.16;4957803;28;46613;-87
2022/03/25 05:53:56;;;;;;;;;60.50;47.50;;;;;-146.03;100.00;60875.16;4959238;28;45378;-87
2022/03/25 05:56:21;;;;;;;;;58.75;46.00;;;;;-146.03;100.00;60875.16;4956425;28;45357;-87
2022/03/25 05:58:47;;;;;;;;;60.00;47.75;;;;;-146.03;100.00;60875.16;4958206;28;45464;-87
2022/03/25 06:01:13;;;;;;;;;60.50;47.50;;;;;-146.03;100.00;60875.16;4960573;28;45513;-87
2022/03/25 06:03:38;;;;;;;;;57.00;45.50;;;;;-146.03;100.00;60875.16;4960642;28;45431;-87
2022/03/25 06:06:05;;;;;;;;;61.00;45.75;;;;;-146.03;100.00;60875.16;4963777;28;45509;-87
2022/03/25 06:08:31;;;;;;;;;64.00;48.00;;;;;-146.03;100.00;60875.16;4961293;28;45374;-87
2022/03/25 06:10:59;;;;;;;;;61.25;49.00;;;;;-146.03;100.00;60875.16;4959000;28;45423;-86
2022/03/25 06:13:25;;;;;;;;;50.25;41.00;;;;;-146.03;100.00;60875.16;4959996;28;45340;-87
2022/03/25 06:15:50;;;;;;;;;62.00;48.50;;;;;-146.03;100.00;60875.16;4960463;28;45324;-87
2022/03/25 06:18:16;;;;;;;;;56.50;43.25;;;;;-146.03;100.00;60875.16;4960918;28;45407;-87
2022/03/25 06:20:42;;;;;;;;;59.25;46.25;;;;;-146.03;100.00;60875.16;4959820;28;47561;-87
2022/03/25 06:23:08;;;;;;;;;65.00;48.00;;;;;-146.03;100.00;60875.16;4975983;28;45474;-87
2022/03/25 06:25:33;;;;;;;;;58.75;45.00;;;;;-146.03;100.00;60875.16;4959169;28;45431;-87
2022/03/25 06:28:01;;;;;;;;;59.75;45.50;;;;;-146.03;100.00;60875.16;4962798;28;45680;-87
2022/03/25 06:30:36;;;;;;;;;61.50;47.50;;;;;-146.03;100.00;60875.16;4963457;28;47116;-87
2022/03/25 06:33:06;;;;;;;;;61.75;47.25;;;;;-146.03;100.00;60875.16;4963461;28;45525;-88
2022/03/25 06:35:31;;;;;;;;;54.00;43.25;;;;;-146.03;100.00;60875.16;4961675;28;45423;-87
2022/03/25 06:37:57;;;;;;;;;58.00;47.25;;;;;-146.03;100.00;60875.16;4964016;28;45281;-84
2022/03/25 06:40:24;;;;;;;;;58.25;43.75;;;;;-146.03;100.00;60875.16;4968551;28;46320;-84
2022/03/25 06:42:53;;;;;;;;;58.75;45.25;;;;;-146.03;100.00;60875.16;4962232;28;45386;-84
2022/03/25 06:45:18;;;;;;;;;61.50;47.75;;;;;-146.03;100.00;60875.16;4963756;28;45634;-85
2022/03/25 06:47:44;;;;;;;;;52.25;43.00;;;;;-146.03;100.00;60875.16;4973796;28;45839;-86
2022/03/25 06:50:13;;;;;;;;;59.25;45.75;;;;;-146.03;100.00;60875.16;4958680;28;46573;-85
2022/03/25 06:52:38;;;;;;;;;59.75;46.00;;;;;-146.03;100.00;60875.16;4973421;28;45521;-85
2022/03/25 06:55:05;;;;;;;;;61.25;48.50;;;;;-146.03;100.00;60875.16;4961573;28;45468;-88
2022/03/25 06:57:30;;;;;;;;;56.25;44.00;;;;;-146.03;100.00;60875.16;4967293;28;45497;-85
2022/03/25 06:59:56;;;;;;;;;57.00;47.00;;;;;-146.03;100.00;60875.16;4969633;28;46372;-87
2022/03/25 07:02:21;;;;;;;;;57.75;46.50;;;;;-146.03;100.00;60875.16;4964935;28;45498;-86
2022/03/25 07:04:47;;;;;;;;;61.25;48.00;;;;;-146.03;100.00;60875.16;4973958;28;45312;-85
2022/03/25 07:07:16;;;;;;;;;56.25;46.50;;;;;-146.03;100.00;60875.16;4966519;28;45437;-87
2022/03/25 07:09:41;;;;;;;;;61.00;49.25;;;;;-146.03;100.00;60875.16;4969047;28;46574;-84
2022/03/25 07:12:07;;;;;;;;;56.50;46.50;;;;;-146.03;100.00;60875.16;4962084;28;45380;-85
2022/03/25 07:14:33;;;;;;;;;61.50;48.25;;;;;-146.03;100.00;60875.16;4961168;28;45395;-84
2022/03/25 07:16:58;;;;;;;;;63.75;49.00;;;;;-146.03;100.00;60875.16;4965390;28;45268;-85
2022/03/25 07:19:25;;;;;;;;;56.00;44.00;;;;;-146.03;100.00;60875.16;4959606;28;50005;-84
2022/03/25 07:21:54;;;;;;;;;57.50;47.25;;;;;-146.03;100.00;60875.16;4961933;28;45492;-85
2022/03/25 07:24:21;;;;;;;;;59.50;47.00;;;;;-146.03;100.00;60875.16;4964249;28;45400;-85
2022/03/25 07:26:47;;;;;;;;;58.25;47.50;;;;;-146.03;100.00;60875.16;4962635;28;45559;-85
2022/03/25 07:29:12;;;;;;;;;60.75;48.50;;;;;-146.03;100.00;60875.16;4958925;28;46288;-84
2022/03/25 07:31:38;;;;;;;;;61.25;47.75;;;;;-146.03;100.00;60875.16;4965434;28;45561;-84
2022/03/25 07:34:03;;;;;;;;;58.75;47.75;;;;;-146.03;100.00;60875.16;4964807;28;45423;-85
2022/03/25 07:36:29;;;;;;;;;60.25;46.75;;;;;-146.03;100.00;60875.16;4970594;28;45377;-84
2022/03/25 07:38:54;;;;;;;;;65.25;50.75;;;;;-146.03;100.00;60875.16;4969087;28;46472;-85
2022/03/25 07:41:21;;;;;;;;;59.50;46.25;;;;;-146.03;100.00;60875.16;4958995;28;45431;-85
2022/03/25 07:43:46;;;;;;;;;63.00;48.00;;;;;-146.03;100.00;60875.16;4977548;28;45364;-85
2022/03/25 07:46:12;;;;;;;;;60.25;47.50;;;;;-146.03;100.00;60875.16;4969294;28;45302;-85
2022/03/25 07:48:37;;;;;;;;;62.50;49.00;;;;;-146.03;100.00;60875.16;4966977;28;45379;-85
2022/03/25 07:51:03;;;;;;;;;61.25;48.75;;;;;-146.03;100.00;60875.16;4963407;28;45683;-85
2022/03/25 07:53:29;;;;;;;;;59.75;47.00;;;;;-146.03;100.00;60875.16;4963494;28;46613;-81
2022/03/25 07:55:55;;;;;;;;;61.75;47.75;;;;;-146.03;100.00;60875.16;4963872;28;45513;-80
2022/03/25 07:58:21;;;;;;;;;58.75;45.00;;;;;-146.03;100.00;60875.16;4966696;28;46224;-80
2022/03/25 08:00:48;;;;;;;;;65.00;51.50;;;;;-146.03;100.00;60875.16;4967877;28;45435;-80
2022/03/25 08:03:16;;;;;;;;;62.50;46.50;;;;;-146.03;100.00;60875.16;4964863;28;45506;-80
2022/03/25 08:05:44;;;;;;;;;66.25;50.25;;;;;-146.03;100.00;60875.16;4966921;28;45447;-80
2022/03/25 08:08:09;;;;;;;;;64.00;48.25;;;;;-146.03;100.00;60875.16;4966077;28;46470;-80
2022/03/25 08:10:36;;;;;;;;;67.75;50.50;;;;;-146.03;100.00;60875.16;4968267;28;45410;-80
2022/03/25 08:13:03;;;;;;;;;59.00;46.50;;;;;-146.03;100.00;60875.16;4964516;28;45501;-80
2022/03/25 08:15:30;;;;;;;;;63.50;49.50;;;;;-146.03;100.00;60875.16;4960877;28;45713;-81
2022/03/25 08:18:01;;;;;;;;;64.00;47.75;;;;;-146.03;100.00;60875.16;4961515;28;46320;-81
2022/03/25 08:20:29;;;;;;;;;59.00;46.50;;;;;-146.03;100.00;60875.16;4968121;28;46573;-81
2022/03/25 08:22:58;;;;;;;;;61.00;48.25;;;;;-146.03;100.00;60875.16;4969669;28;45417;-81
2022/03/25 08:28:09;;;;;;;;;59.00;48.25;;;;;-146.03;100.00;60875.16;4967644;28;45856;-81
2022/03/25 08:30:35;;;;;;;;;56.00;44.25;;;;;-146.03;100.00;60875.16;4962767;28;45537;-81
2022/03/25 08:33:01;;;;;;;;;57.00;45.75;;;;;-146.03;100.00;60875.16;4971437;28;45365;-81
2022/03/25 08:35:28;;;;;;;;;62.00;49.00;;;;;-146.03;100.00;60875.16;4976151;28;45624;-81
2022/03/25 08:37:54;;;;;;;;;62.50;49.00;;;;;-146.03;100.00;60875.16;4986828;28;45667;-81
2022/03/25 08:40:24;;;;;;;;;61.50;48.50;;;;;-146.03;100.00;60875.16;4958129;28;45382;-81
2022/03/25 08:42:50;;;;;;;;;59.50;45.75;;;;;-146.03;100.00;60875.16;4957408;28;45324;-81
2022/03/25 08:45:16;;;;;;;;;62.75;49.00;;;;;-146.03;100.00;60875.16;4958889;28;45449;-81
2022/03/25 08:47:43;;;;;;;;;58.50;47.00;;;;;-146.03;100.00;60875.16;4958741;28;46031;-80
2022/03/25 08:50:12;;;;;;;;;54.25;40.25;;;;;-146.03;100.00;60875.16;4978626;28;45382;-80
2022/03/25 08:52:38;;;;;;;;;61.00;48.50;;;;;-146.03;100.00;60875.16;4974628;28;45507;-80
2022/03/25 08:55:04;;;;;;;;;57.75;45.00;;;;;-146.03;100.00;60875.16;4968407;28;45467;-81
2022/03/25 08:57:30;;;;;;;;;59.25;47.75;;;;;-146.03;100.00;60875.16;4965464;28;47224;-81
2022/03/25 08:59:55;;;;;;;;;66.75;48.00;;;;;-146.03;100.00;60875.16;4959155;28;45503;-81
2022/03/25 09:02:22;;;;;;;;;62.00;47.50;;;;;-146.03;100.00;60875.16;4961898;28;45564;-81
2022/03/25 09:04:47;;;;;;;;;59.50;47.75;;;;;-146.03;100.00;60875.16;4960510;28;45484;-80
2022/03/25 09:07:13;;;;;;;;;64.25;49.75;;;;;-146.03;100.00;60875.16;4960244;28;46144;-81
2022/03/25 09:09:38;;;;;;;;;65.75;50.50;;;;;-146.03;100.00;60875.16;4962467;28;45886;-80
2022/03/25 09:12:04;;;;;;;;;61.75;46.50;;;;;-146.03;100.00;60875.16;4966105;28;45613;-80
2022/03/25 09:14:29;;;;;;;;;62.50;48.00;;;;;-146.03;100.00;60875.16;4960372;28;45568;-81
2022/03/25 09:16:55;;;;;;;;;66.75;51.00;;;;;-146.03;100.00;60875.16;4967192;28;45428;-80
2022/03/25 09:19:20;;;;;;;;;65.00;51.33;;;;;-146.03;100.00;60875.16;4958916;28;45438;-80
2022/03/25 09:21:45;;;;;;;;;60.75;47.50;;;;;-146.03;100.00;60875.16;4957751;28;45355;-80
2022/03/25 09:24:11;;;;;;;;;62.75;49.50;;;;;-146.03;100.00;60875.16;4960769;28;45524;-80
2022/03/25 09:26:36;;;;;;;;;55.25;43.75;;;;;-146.03;100.00;60875.16;4956718;28;47170;-80
2022/03/25 09:29:02;;;;;;;;;63.00;48.50;;;;;-146.03;100.00;60875.16;4957938;28;45400;-80
2022/03/25 09:31:27;;;;;;;;;60.50;48.25;;;;;-146.03;100.00;60875.16;4959284;28;45411;-80
2022/03/25 09:35:08;;;;;;;;;59.25;47.50;;;;;-146.03;100.00;60875.16;4961438;28;45501;-80
2022/03/25 09:36:37;;;;;;;;;57.00;45.50;;;;;-146.03;100.00;60875.16;4962409;28;45296;-80
2022/03/25 09:39:03;;;;;;;;;57.00;46.00;;;;;-146.03;100.00;60875.16;4969342;28;45454;-80
2022/03/25 09:41:30;;;;;;;;;61.75;48.50;;;;;-146.03;100.00;60875.16;4966791;28;45569;-80
2022/03/25 09:43:56;;;;;;;;;60.50;48.50;;;;;-146.03;100.00;60875.16;4961929;28;45471;-80
2022/03/25 09:46:21;;;;;;;;;50.00;39.25;;;;;-146.03;100.00;60875.16;4963052;28;45484;-80
2022/03/25 09:48:46;;;;;;;;;62.00;48.00;;;;;-146.03;100.00;60875.16;4963264;28;45349;-80
2022/03/25 09:51:13;;;;;;;;;65.75;50.75;;;;;-146.03;100.00;60875.16;4962347;28;47414;-80
2022/03/25 09:53:39;;;;;;;;;59.50;47.75;;;;;-146.03;100.00;60875.16;4968929;28;45779;-80
2022/03/25 09:56:06;;;;;;;;;60.25;46.75;;;;;-146.03;100.00;60875.16;4964407;28;46765;-80
2022/03/25 09:58:31;;;;;;;;;60.75;47.50;;;;;-146.03;100.00;60875.16;4963475;28;45317;-80
2022/03/25 10:00:59;;;;;;;;;61.75;48.75;;;;;-146.03;100.00;60875.16;4964326;28;45357;-80
2022/03/25 10:03:36;;;;;;;;;64.25;50.75;;;;;-146.03;100.00;60875.16;4964909;28;45418;-80
2022/03/25 10:06:02;;;;;;;;;60.25;46.50;;;;;-146.03;100.00;60875.16;4963448;28;46651;-80
2022/03/25 10:08:29;;;;;;;;;69.00;52.25;;;;;-146.03;100.00;60875.16;4959696;28;45491;-80
2022/03/25 10:10:54;;;;;;;;;61.75;48.75;;;;;-146.03;100.00;60875.16;4959262;28;45340;-80
2022/03/25 10:13:19;;;;;;;;;69.50;53.75;;;;;-146.03;100.00;60875.16;4960601;28;45317;-80
2022/03/25 10:15:45;;;;;;;;;67.00;52.75;;;;;-146.03;100.00;60875.16;4958946;28;45427;-80
2022/03/25 10:18:10;;;;;;;;;70.25;53.50;;;;;-146.03;100.00;60875.16;4963086;28;45578;-80
2022/03/25 10:20:38;;;;;;;;;62.75;50.75;;;;;-146.03;100.00;60875.16;4968906;28;45390;-80
2022/03/25 10:23:04;;;;;;;;;60.25;47.75;;;;;-146.03;100.00;60875.16;4964793;28;45768;-80
2022/03/25 10:25:40;;;;;;;;;70.50;53.50;;;;;-146.03;100.00;60875.16;4959315;28;45952;-80
2022/03/25 10:28:20;;;;;;;;;67.25;52.25;;;;;-146.03;100.00;60875.16;4972560;28;45510;-80
2022/03/25 10:30:50;;;;;;;;;66.25;52.75;;;;;-146.03;100.00;60875.16;4963917;28;45518;-80
2022/03/25 10:33:34;;;;;;;;;65.00;50.50;;;;;-146.03;100.00;60875.16;4965268;28;45193;-80
2022/03/25 10:36:10;;;;;;;;;69.75;53.25;;;;;-146.03;100.00;60875.16;4963866;28;46244;-80
2022/03/25 10:39:11;;;;;;;;;72.50;56.25;;;;;-146.03;100.00;60875.16;4965279;28;45489;-80
2022/03/25 10:41:42;;;;;;;;;62.25;50.00;;;;;-146.03;100.00;60875.16;4974437;28;45413;-80
2022/03/25 10:44:10;;;;;;;;;66.00;50.00;;;;;-146.03;100.00;60875.16;4984570;28;45474;-80
2022/03/25 10:46:39;;;;;;;;;59.50;48.00;;;;;-146.03;100.00;60875.16;4966426;28;48705;-80
2022/03/25 10:49:13;;;;;;;;;68.25;52.50;;;;;-146.03;100.00;60875.16;4966973;28;45363;-80
2022/03/25 10:51:41;;;;;;;;;56.75;46.00;;;;;-146.03;100.00;60875.16;4966441;28;45372;-80
2022/03/25 10:54:10;;;;;;;;;59.75;48.75;;;;;-146.03;100.00;60875.16;4959996;28;45356;-80